sensor_id;sensor_type;location;lat;lon;timestamp;pressure;altitude;pressure_sealevel;temperature;humidity
56831;BME280;42713;42.676;23.352;2023-05-25T00:00:32;94726.78;;;17.79;62.35
56831;BME280;42713;42.676;23.352;2023-05-25T00:02:57;94729.97;;;17.76;62.30
56831;BME280;42713;42.676;23.352;2023-05-25T00:05:23;94734.88;;;17.69;62.89
56831;BME280;42713;42.676;23.352;2023-05-25T00:07:52;94742.38;;;17.62;63.27
56831;BME280;42713;42.676;23.352;2023-05-25T00:10:17;94740.09;;;17.55;63.56
56831;BME280;42713;42.676;23.352;2023-05-25T00:12:43;94746.97;;;17.56;63.64
56831;BME280;42713;42.676;23.352;2023-05-25T00:15:08;94743.28;;;17.52;63.87
56831;BME280;42713;42.676;23.352;2023-05-25T00:17:34;94737.78;;;17.48;64.02
56831;BME280;42713;42.676;23.352;2023-05-25T00:20:02;94740.50;;;17.43;64.13
56831;BME280;42713;42.676;23.352;2023-05-25T00:22:32;94745.56;;;17.39;64.32
56831;BME280;42713;42.676;23.352;2023-05-25T00:24:58;94748.84;;;17.31;64.22
56831;BME280;42713;42.676;23.352;2023-05-25T00:27:24;94745.66;;;17.34;64.21
56831;BME280;42713;42.676;23.352;2023-05-25T00:29:49;94739.63;;;17.29;64.46
56831;BME280;42713;42.676;23.352;2023-05-25T00:32:15;94741.53;;;17.23;64.40
56831;BME280;42713;42.676;23.352;2023-05-25T00:34:40;94743.13;;;17.24;64.07
56831;BME280;42713;42.676;23.352;2023-05-25T00:37:06;94738.91;;;17.23;64.59
56831;BME280;42713;42.676;23.352;2023-05-25T00:39:31;94738.91;;;17.23;64.28
56831;BME280;42713;42.676;23.352;2023-05-25T00:41:57;94742.34;;;17.23;64.36
56831;BME280;42713;42.676;23.352;2023-05-25T00:44:23;94741.03;;;17.21;64.58
56831;BME280;42713;42.676;23.352;2023-05-25T00:46:50;94739.19;;;17.21;64.62
56831;BME280;42713;42.676;23.352;2023-05-25T00:49:20;94754.00;;;17.22;64.62
56831;BME280;42713;42.676;23.352;2023-05-25T00:51:51;94747.41;;;17.20;65.15
56831;BME280;42713;42.676;23.352;2023-05-25T00:54:17;94751.91;;;17.19;64.87
56831;BME280;42713;42.676;23.352;2023-05-25T00:56:50;94750.34;;;17.18;64.99
56831;BME280;42713;42.676;23.352;2023-05-25T00:59:31;94749.81;;;17.16;65.44
56831;BME280;42713;42.676;23.352;2023-05-25T01:02:02;94760.16;;;17.18;65.30
56831;BME280;42713;42.676;23.352;2023-05-25T01:04:31;94749.81;;;17.16;65.30
56831;BME280;42713;42.676;23.352;2023-05-25T01:06:58;94759.69;;;17.10;65.35
56831;BME280;42713;42.676;23.352;2023-05-25T01:09:26;94763.34;;;17.15;65.21
56831;BME280;42713;42.676;23.352;2023-05-25T01:11:53;94769.94;;;17.17;64.79
56831;BME280;42713;42.676;23.352;2023-05-25T01:14:20;94765.25;;;17.09;65.15
56831;BME280;42713;42.676;23.352;2023-05-25T01:16:47;94762.09;;;17.07;65.55
56831;BME280;42713;42.676;23.352;2023-05-25T01:19:12;94770.03;;;17.07;65.72
56831;BME280;42713;42.676;23.352;2023-05-25T01:24:39;94756.88;;;17.02;64.92
56831;BME280;42713;42.676;23.352;2023-05-25T01:29:33;94749.78;;;16.97;65.17
56831;BME280;42713;42.676;23.352;2023-05-25T01:32:01;94748.72;;;16.98;65.16
56831;BME280;42713;42.676;23.352;2023-05-25T01:34:28;94742.59;;;17.03;65.06
56831;BME280;42713;42.676;23.352;2023-05-25T01:36:55;94755.00;;;17.02;64.91
56831;BME280;42713;42.676;23.352;2023-05-25T01:39:21;94744.16;;;17.04;65.42
56831;BME280;42713;42.676;23.352;2023-05-25T01:41:47;94744.44;;;17.02;65.53
56831;BME280;42713;42.676;23.352;2023-05-25T01:44:13;94733.34;;;17.00;65.76
56831;BME280;42713;42.676;23.352;2023-05-25T01:46:39;94734.97;;;16.96;65.56
56831;BME280;42713;42.676;23.352;2023-05-25T01:49:15;94731.28;;;16.92;65.69
56831;BME280;42713;42.676;23.352;2023-05-25T01:54:35;94727.41;;;16.84;65.93
56831;BME280;42713;42.676;23.352;2023-05-25T01:57:06;94734.84;;;16.82;66.21
56831;BME280;42713;42.676;23.352;2023-05-25T01:59:35;94735.41;;;16.79;66.16
56831;BME280;42713;42.676;23.352;2023-05-25T02:02:03;94730.41;;;16.77;66.02
56831;BME280;42713;42.676;23.352;2023-05-25T02:04:30;94738.66;;;16.71;66.46
56831;BME280;42713;42.676;23.352;2023-05-25T02:06:55;94738.94;;;16.69;66.40
56831;BME280;42713;42.676;23.352;2023-05-25T02:09:21;94744.78;;;16.66;66.67
56831;BME280;42713;42.676;23.352;2023-05-25T02:11:46;94749.03;;;16.62;67.17
56831;BME280;42713;42.676;23.352;2023-05-25T02:14:13;94745.41;;;16.58;67.21
56831;BME280;42713;42.676;23.352;2023-05-25T02:16:38;94749.72;;;16.48;67.20
56831;BME280;42713;42.676;23.352;2023-05-25T02:19:04;94750.31;;;16.40;67.52
56831;BME280;42713;42.676;23.352;2023-05-25T02:21:29;94753.28;;;16.33;67.97
56831;BME280;42713;42.676;23.352;2023-05-25T02:23:55;94756.53;;;16.25;68.47
56831;BME280;42713;42.676;23.352;2023-05-25T02:26:22;94757.84;;;16.23;68.64
56831;BME280;42713;42.676;23.352;2023-05-25T02:28:47;94758.38;;;16.25;68.60
56831;BME280;42713;42.676;23.352;2023-05-25T02:31:13;94765.00;;;16.22;68.53
56831;BME280;42713;42.676;23.352;2023-05-25T02:33:38;94762.31;;;16.27;68.28
56831;BME280;42713;42.676;23.352;2023-05-25T02:36:04;94764.72;;;16.24;68.30
56831;BME280;42713;42.676;23.352;2023-05-25T02:38:30;94773.69;;;16.23;68.50
56831;BME280;42713;42.676;23.352;2023-05-25T02:40:55;94771.63;;;16.20;68.36
56831;BME280;42713;42.676;23.352;2023-05-25T02:43:20;94783.81;;;16.15;68.64
56831;BME280;42713;42.676;23.352;2023-05-25T02:45:46;94784.34;;;16.12;68.96
56831;BME280;42713;42.676;23.352;2023-05-25T02:48:11;94787.81;;;16.08;69.20
56831;BME280;42713;42.676;23.352;2023-05-25T02:50:37;94791.03;;;16.05;68.94
56831;BME280;42713;42.676;23.352;2023-05-25T02:53:03;94792.09;;;15.98;69.40
56831;BME280;42713;42.676;23.352;2023-05-25T02:55:28;94791.56;;;16.01;69.36
56831;BME280;42713;42.676;23.352;2023-05-25T02:57:54;94797.13;;;16.00;69.78
56831;BME280;42713;42.676;23.352;2023-05-25T03:00:19;94794.72;;;16.03;69.86
56831;BME280;42713;42.676;23.352;2023-05-25T03:02:45;94795.25;;;16.06;69.48
56831;BME280;42713;42.676;23.352;2023-05-25T03:05:14;94794.97;;;16.07;69.26
56831;BME280;42713;42.676;23.352;2023-05-25T03:07:40;94799.97;;;16.09;69.75
56831;BME280;42713;42.676;23.352;2023-05-25T03:10:08;94800.78;;;16.04;69.64
56831;BME280;42713;42.676;23.352;2023-05-25T03:12:34;94802.91;;;16.02;69.51
56831;BME280;42713;42.676;23.352;2023-05-25T03:14:59;94803.19;;;16.00;69.55
56831;BME280;42713;42.676;23.352;2023-05-25T03:17:24;94804.78;;;16.01;69.83
56831;BME280;42713;42.676;23.352;2023-05-25T03:19:50;94803.72;;;16.02;69.45
56831;BME280;42713;42.676;23.352;2023-05-25T03:22:16;94808.19;;;16.02;69.24
56831;BME280;42713;42.676;23.352;2023-05-25T03:24:42;94802.41;;;16.00;69.79
56831;BME280;42713;42.676;23.352;2023-05-25T03:27:08;94799.25;;;15.98;69.71
56831;BME280;42713;42.676;23.352;2023-05-25T03:29:34;94807.19;;;15.98;70.24
56831;BME280;42713;42.676;23.352;2023-05-25T03:31:59;94806.38;;;15.97;70.41
56831;BME280;42713;42.676;23.352;2023-05-25T03:34:25;94806.69;;;15.91;70.19
56831;BME280;42713;42.676;23.352;2023-05-25T03:36:51;94815.69;;;15.90;70.56
56831;BME280;42713;42.676;23.352;2023-05-25T03:39:18;94804.06;;;15.91;70.57
56831;BME280;42713;42.676;23.352;2023-05-25T03:41:46;94803.53;;;15.89;70.30
56831;BME280;42713;42.676;23.352;2023-05-25T03:44:11;94800.09;;;15.88;70.55
56831;BME280;42713;42.676;23.352;2023-05-25T03:46:37;94802.44;;;15.95;70.46
56831;BME280;42713;42.676;23.352;2023-05-25T03:49:02;94804.81;;;15.96;70.09
56831;BME280;42713;42.676;23.352;2023-05-25T03:51:28;94806.66;;;16.01;70.05
56831;BME280;42713;42.676;23.352;2023-05-25T03:53:54;94808.72;;;16.04;69.69
56831;BME280;42713;42.676;23.352;2023-05-25T03:56:19;94809.22;;;16.06;69.73
56831;BME280;42713;42.676;23.352;2023-05-25T03:58:45;94815.28;;;16.12;70.06
56831;BME280;42713;42.676;23.352;2023-05-25T04:01:10;94815.56;;;16.10;70.04
56831;BME280;42713;42.676;23.352;2023-05-25T04:03:37;94821.84;;;16.14;69.80
56831;BME280;42713;42.676;23.352;2023-05-25T04:06:03;94819.50;;;16.13;69.44
56831;BME280;42713;42.676;23.352;2023-05-25T04:08:29;94828.97;;;16.19;69.87
56831;BME280;42713;42.676;23.352;2023-05-25T04:10:54;94833.19;;;16.20;70.17
56831;BME280;42713;42.676;23.352;2023-05-25T04:13:20;94838.72;;;16.24;69.51
56831;BME280;42713;42.676;23.352;2023-05-25T04:15:46;94840.81;;;16.27;70.22
56831;BME280;42713;42.676;23.352;2023-05-25T04:18:11;94835.75;;;16.30;70.08
56831;BME280;42713;42.676;23.352;2023-05-25T04:20:37;94830.72;;;16.34;70.17
56831;BME280;42713;42.676;23.352;2023-05-25T04:23:02;94836.75;;;16.40;69.93
56831;BME280;42713;42.676;23.352;2023-05-25T04:25:28;94834.09;;;16.45;69.54
56831;BME280;42713;42.676;23.352;2023-05-25T04:27:53;94839.31;;;16.50;69.75
56831;BME280;42713;42.676;23.352;2023-05-25T04:30:21;94843.25;;;16.53;70.32
56831;BME280;42713;42.676;23.352;2023-05-25T04:32:47;94850.88;;;16.59;69.34
56831;BME280;42713;42.676;23.352;2023-05-25T04:35:12;94849.53;;;16.62;69.01
56831;BME280;42713;42.676;23.352;2023-05-25T04:37:39;94851.41;;;16.61;69.02
56831;BME280;42713;42.676;23.352;2023-05-25T04:40:06;94864.31;;;16.68;68.78
56831;BME280;42713;42.676;23.352;2023-05-25T04:42:36;94857.97;;;16.69;67.62
56831;BME280;42713;42.676;23.352;2023-05-25T04:45:04;94859.25;;;16.72;68.04
56831;BME280;42713;42.676;23.352;2023-05-25T04:47:29;94863.72;;;16.76;68.54
56831;BME280;42713;42.676;23.352;2023-05-25T04:50:00;94855.72;;;16.81;67.62
56831;BME280;42713;42.676;23.352;2023-05-25T04:52:26;94850.94;;;16.84;67.76
56831;BME280;42713;42.676;23.352;2023-05-25T04:54:52;94850.41;;;16.87;66.85
56831;BME280;42713;42.676;23.352;2023-05-25T04:57:18;94844.25;;;16.91;66.88
56831;BME280;42713;42.676;23.352;2023-05-25T04:59:43;94845.03;;;16.92;66.78
56831;BME280;42713;42.676;23.352;2023-05-25T05:02:08;94832.63;;;16.92;66.88
56831;BME280;42713;42.676;23.352;2023-05-25T05:04:34;94844.53;;;16.95;67.26
56831;BME280;42713;42.676;23.352;2023-05-25T05:07:01;94843.47;;;16.96;67.06
56831;BME280;42713;42.676;23.352;2023-05-25T05:09:27;94837.63;;;16.99;67.32
56831;BME280;42713;42.676;23.352;2023-05-25T05:11:53;94842.63;;;17.01;67.35
56831;BME280;42713;42.676;23.352;2023-05-25T05:14:18;94842.06;;;17.04;67.21
56831;BME280;42713;42.676;23.352;2023-05-25T05:16:43;94847.59;;;17.07;67.66
56831;BME280;42713;42.676;23.352;2023-05-25T05:19:09;94843.06;;;17.08;66.87
56831;BME280;42713;42.676;23.352;2023-05-25T05:21:35;94840.16;;;17.09;67.75
56831;BME280;42713;42.676;23.352;2023-05-25T05:24:01;94846.84;;;17.02;67.73
56831;BME280;42713;42.676;23.352;2023-05-25T05:26:26;94846.56;;;17.03;67.77
56831;BME280;42713;42.676;23.352;2023-05-25T05:28:52;94848.38;;;17.08;67.39
56831;BME280;42713;42.676;23.352;2023-05-25T05:31:18;94853.34;;;17.15;67.83
56831;BME280;42713;42.676;23.352;2023-05-25T05:33:44;94857.28;;;17.17;68.53
56831;BME280;42713;42.676;23.352;2023-05-25T05:36:09;94862.22;;;17.24;68.33
56831;BME280;42713;42.676;23.352;2023-05-25T05:38:35;94856.09;;;17.29;67.45
56831;BME280;42713;42.676;23.352;2023-05-25T05:41:00;94855.53;;;17.32;67.63
56831;BME280;42713;42.676;23.352;2023-05-25T05:43:27;94870.06;;;17.34;66.47
56831;BME280;42713;42.676;23.352;2023-05-25T05:45:52;94863.63;;;17.40;66.98
56831;BME280;42713;42.676;23.352;2023-05-25T05:48:18;94870.75;;;17.45;66.79
56831;BME280;42713;42.676;23.352;2023-05-25T05:50:43;94867.75;;;17.52;66.74
56831;BME280;42713;42.676;23.352;2023-05-25T05:53:09;94873.00;;;17.57;65.99
56831;BME280;42713;42.676;23.352;2023-05-25T05:55:35;94865.78;;;17.63;66.40
56831;BME280;42713;42.676;23.352;2023-05-25T05:58:00;94873.13;;;17.71;65.84
56831;BME280;42713;42.676;23.352;2023-05-25T06:00:26;94870.13;;;17.78;65.66
56831;BME280;42713;42.676;23.352;2023-05-25T06:02:52;94871.63;;;17.84;65.21
56831;BME280;42713;42.676;23.352;2023-05-25T06:05:17;94863.59;;;17.89;65.00
56831;BME280;42713;42.676;23.352;2023-05-25T06:07:43;94852.94;;;17.94;63.79
56831;BME280;42713;42.676;23.352;2023-05-25T06:10:09;94864.31;;;18.00;64.11
56831;BME280;42713;42.676;23.352;2023-05-25T06:12:34;94864.22;;;18.05;63.70
56831;BME280;42713;42.676;23.352;2023-05-25T06:15:00;94862.28;;;18.11;63.18
56831;BME280;42713;42.676;23.352;2023-05-25T06:17:26;94865.97;;;18.15;63.41
56831;BME280;42713;42.676;23.352;2023-05-25T06:19:52;94863.53;;;18.18;63.41
56831;BME280;42713;42.676;23.352;2023-05-25T06:22:17;94865.31;;;18.23;63.14
56831;BME280;42713;42.676;23.352;2023-05-25T06:24:43;94871.53;;;18.32;62.98
56831;BME280;42713;42.676;23.352;2023-05-25T06:27:08;94870.09;;;18.40;63.31
56831;BME280;42713;42.676;23.352;2023-05-25T06:29:34;94864.41;;;18.47;61.90
56831;BME280;42713;42.676;23.352;2023-05-25T06:32:00;94863.56;;;18.51;61.97
56831;BME280;42713;42.676;23.352;2023-05-25T06:34:25;94861.63;;;18.57;61.94
56831;BME280;42713;42.676;23.352;2023-05-25T06:36:51;94863.69;;;18.60;62.21
56831;BME280;42713;42.676;23.352;2023-05-25T06:39:16;94875.31;;;18.64;62.18
56831;BME280;42713;42.676;23.352;2023-05-25T06:41:42;94869.13;;;18.69;60.99
56831;BME280;42713;42.676;23.352;2023-05-25T06:44:08;94873.56;;;18.74;61.19
56831;BME280;42713;42.676;23.352;2023-05-25T06:46:33;94869.03;;;18.74;61.22
56831;BME280;42713;42.676;23.352;2023-05-25T06:49:00;94870.31;;;18.77;61.36
56831;BME280;42713;42.676;23.352;2023-05-25T06:51:26;94871.31;;;18.81;61.62
56831;BME280;42713;42.676;23.352;2023-05-25T06:53:53;94872.47;;;18.94;61.41
56831;BME280;42713;42.676;23.352;2023-05-25T06:56:19;94876.78;;;18.90;60.43
56831;BME280;42713;42.676;23.352;2023-05-25T06:58:44;94877.03;;;18.88;61.34
56831;BME280;42713;42.676;23.352;2023-05-25T07:01:10;94874.56;;;18.97;61.79
56831;BME280;42713;42.676;23.352;2023-05-25T07:03:35;94879.59;;;19.12;63.15
56831;BME280;42713;42.676;23.352;2023-05-25T07:06:03;94875.09;;;19.27;63.29
56831;BME280;42713;42.676;23.352;2023-05-25T07:08:28;94864.47;;;19.41;62.10
56831;BME280;42713;42.676;23.352;2023-05-25T07:10:54;94868.03;;;19.50;61.31
56831;BME280;42713;42.676;23.352;2023-05-25T07:13:20;94861.06;;;19.54;60.30
56831;BME280;42713;42.676;23.352;2023-05-25T07:15:45;94854.16;;;19.67;59.29
56831;BME280;42713;42.676;23.352;2023-05-25T07:18:11;94856.41;;;19.74;59.16
56831;BME280;42713;42.676;23.352;2023-05-25T07:20:38;94865.75;;;19.71;58.45
56831;BME280;42713;42.676;23.352;2023-05-25T07:23:07;94856.91;;;19.62;59.10
56831;BME280;42713;42.676;23.352;2023-05-25T07:25:33;94860.44;;;19.71;59.21
56831;BME280;42713;42.676;23.352;2023-05-25T07:27:59;94868.53;;;19.66;58.61
56831;BME280;42713;42.676;23.352;2023-05-25T07:30:24;94864.78;;;19.67;58.89
56831;BME280;42713;42.676;23.352;2023-05-25T07:32:50;94858.47;;;19.63;59.79
56831;BME280;42713;42.676;23.352;2023-05-25T07:35:15;94863.59;;;19.73;59.51
56831;BME280;42713;42.676;23.352;2023-05-25T07:37:41;94862.59;;;19.83;60.00
56831;BME280;42713;42.676;23.352;2023-05-25T07:40:07;94871.19;;;19.94;59.92
56831;BME280;42713;42.676;23.352;2023-05-25T07:42:32;94872.03;;;20.03;60.04
56831;BME280;42713;42.676;23.352;2023-05-25T07:45:00;94864.97;;;19.99;59.92
56831;BME280;42713;42.676;23.352;2023-05-25T07:47:26;94871.47;;;19.93;60.27
56831;BME280;42713;42.676;23.352;2023-05-25T07:49:51;94873.25;;;19.83;60.84
56831;BME280;42713;42.676;23.352;2023-05-25T07:52:17;94868.19;;;19.82;60.65
56831;BME280;42713;42.676;23.352;2023-05-25T07:54:44;94870.66;;;19.78;60.30
56831;BME280;42713;42.676;23.352;2023-05-25T07:57:09;94874.13;;;19.79;61.31
56831;BME280;42713;42.676;23.352;2023-05-25T07:59:35;94880.53;;;19.64;60.72
56831;BME280;42713;42.676;23.352;2023-05-25T08:02:00;94885.03;;;19.49;60.23
56831;BME280;42713;42.676;23.352;2023-05-25T08:04:26;94894.91;;;19.49;60.47
56831;BME280;42713;42.676;23.352;2023-05-25T08:06:51;94897.56;;;19.49;60.63
56831;BME280;42713;42.676;23.352;2023-05-25T08:09:17;94897.63;;;19.57;61.34
56831;BME280;42713;42.676;23.352;2023-05-25T08:11:42;94903.44;;;19.59;61.87
56831;BME280;42713;42.676;23.352;2023-05-25T08:14:10;94904.53;;;19.58;62.40
56831;BME280;42713;42.676;23.352;2023-05-25T08:16:36;94910.91;;;19.57;62.50
56831;BME280;42713;42.676;23.352;2023-05-25T08:19:01;94920.84;;;19.52;62.16
56831;BME280;42713;42.676;23.352;2023-05-25T08:21:27;94924.88;;;19.49;61.88
56831;BME280;42713;42.676;23.352;2023-05-25T08:23:52;94931.09;;;19.44;62.26
56831;BME280;42713;42.676;23.352;2023-05-25T08:26:18;94938.84;;;19.41;62.58
56831;BME280;42713;42.676;23.352;2023-05-25T08:28:44;94941.69;;;19.31;62.92
56831;BME280;42713;42.676;23.352;2023-05-25T08:31:09;94938.44;;;19.20;62.89
56831;BME280;42713;42.676;23.352;2023-05-25T08:33:36;94940.44;;;19.09;63.28
56831;BME280;42713;42.676;23.352;2023-05-25T08:36:02;94940.03;;;19.02;63.67
56831;BME280;42713;42.676;23.352;2023-05-25T08:38:27;94947.28;;;18.96;64.52
56831;BME280;42713;42.676;23.352;2023-05-25T08:41:04;94946.41;;;18.81;64.62
56831;BME280;42713;42.676;23.352;2023-05-25T08:43:31;94944.72;;;18.72;65.12
56831;BME280;42713;42.676;23.352;2023-05-25T08:46:02;94944.94;;;18.56;65.46
56831;BME280;42713;42.676;23.352;2023-05-25T08:48:30;94947.88;;;18.55;65.75
56831;BME280;42713;42.676;23.352;2023-05-25T08:51:01;94951.38;;;18.50;66.13
56831;BME280;42713;42.676;23.352;2023-05-25T08:53:29;94953.59;;;18.43;65.93
56831;BME280;42713;42.676;23.352;2023-05-25T08:55:59;94956.69;;;18.31;66.63
56831;BME280;42713;42.676;23.352;2023-05-25T08:58:33;94957.75;;;18.30;66.56
56831;BME280;42713;42.676;23.352;2023-05-25T09:01:07;94964.63;;;18.31;66.77
56831;BME280;42713;42.676;23.352;2023-05-25T09:03:33;94969.13;;;18.30;66.92
56831;BME280;42713;42.676;23.352;2023-05-25T09:06:00;94967.56;;;18.29;67.66
56831;BME280;42713;42.676;23.352;2023-05-25T09:08:26;94977.91;;;18.31;68.23
56831;BME280;42713;42.676;23.352;2023-05-25T09:10:53;94975.25;;;18.31;68.36
56831;BME280;42713;42.676;23.352;2023-05-25T09:13:19;94980.25;;;18.32;68.88
56831;BME280;42713;42.676;23.352;2023-05-25T09:15:45;94976.81;;;18.32;68.65
56831;BME280;42713;42.676;23.352;2023-05-25T09:18:10;94980.53;;;18.31;68.59
56831;BME280;42713;42.676;23.352;2023-05-25T09:20:36;94977.09;;;18.30;68.28
56831;BME280;42713;42.676;23.352;2023-05-25T09:23:01;94978.16;;;18.29;69.20
56831;BME280;42713;42.676;23.352;2023-05-25T09:25:28;94977.94;;;18.26;68.11
56831;BME280;42713;42.676;23.352;2023-05-25T09:27:55;94971.00;;;18.30;68.75
56831;BME280;42713;42.676;23.352;2023-05-25T09:30:23;94975.00;;;18.27;68.55
56831;BME280;42713;42.676;23.352;2023-05-25T09:32:49;94970.50;;;18.28;68.22
56831;BME280;42713;42.676;23.352;2023-05-25T09:35:15;94970.41;;;18.33;68.29
56831;BME280;42713;42.676;23.352;2023-05-25T09:37:44;94955.88;;;18.30;67.80
56831;BME280;42713;42.676;23.352;2023-05-25T09:40:10;94971.00;;;18.30;68.26
56831;BME280;42713;42.676;23.352;2023-05-25T09:42:36;94961.19;;;18.30;69.34
56831;BME280;42713;42.676;23.352;2023-05-25T09:45:03;94960.66;;;18.28;70.78
56831;BME280;42713;42.676;23.352;2023-05-25T09:47:29;94957.16;;;18.33;71.24
56831;BME280;42713;42.676;23.352;2023-05-25T09:49:55;94961.34;;;18.39;71.07
56831;BME280;42713;42.676;23.352;2023-05-25T09:52:20;94951.66;;;18.48;71.38
56831;BME280;42713;42.676;23.352;2023-05-25T09:54:47;94951.53;;;18.59;71.32
56831;BME280;42713;42.676;23.352;2023-05-25T09:57:14;94952.25;;;18.64;71.57
56831;BME280;42713;42.676;23.352;2023-05-25T09:59:40;94952.16;;;18.70;71.44
56831;BME280;42713;42.676;23.352;2023-05-25T10:02:06;94948.94;;;18.73;70.63
56831;BME280;42713;42.676;23.352;2023-05-25T10:04:31;94943.75;;;18.81;69.48
56831;BME280;42713;42.676;23.352;2023-05-25T10:07:03;94943.63;;;18.73;68.97
56831;BME280;42713;42.676;23.352;2023-05-25T10:09:29;94945.56;;;18.67;69.52
56831;BME280;42713;42.676;23.352;2023-05-25T10:11:58;94937.09;;;18.65;69.07
56831;BME280;42713;42.676;23.352;2023-05-25T10:14:28;94930.56;;;18.76;69.62
56831;BME280;42713;42.676;23.352;2023-05-25T10:16:54;94928.22;;;18.94;70.57
56831;BME280;42713;42.676;23.352;2023-05-25T10:22:07;94925.19;;;19.01;67.91
56831;BME280;42713;42.676;23.352;2023-05-25T10:24:42;94919.56;;;19.02;67.41
56831;BME280;42713;42.676;23.352;2023-05-25T10:27:17;94916.97;;;19.16;67.94
56831;BME280;42713;42.676;23.352;2023-05-25T10:29:46;94914.28;;;19.16;66.37
56831;BME280;42713;42.676;23.352;2023-05-25T10:32:12;94908.03;;;19.26;66.74
56831;BME280;42713;42.676;23.352;2023-05-25T10:34:40;94906.09;;;19.32;65.00
56831;BME280;42713;42.676;23.352;2023-05-25T10:37:06;94902.94;;;19.43;66.13
56831;BME280;42713;42.676;23.352;2023-05-25T10:39:33;94889.97;;;19.42;65.30
56831;BME280;42713;42.676;23.352;2023-05-25T10:42:00;94894.19;;;19.43;64.18
56831;BME280;42713;42.676;23.352;2023-05-25T10:44:28;94878.94;;;19.35;63.73
56831;BME280;42713;42.676;23.352;2023-05-25T10:46:55;94881.31;;;19.36;66.18
56831;BME280;42713;42.676;23.352;2023-05-25T10:49:34;94878.25;;;19.29;65.22
56831;BME280;42713;42.676;23.352;2023-05-25T10:52:10;94879.59;;;19.26;64.89
56831;BME280;42713;42.676;23.352;2023-05-25T10:54:36;94874.69;;;19.20;62.91
56831;BME280;42713;42.676;23.352;2023-05-25T10:57:10;94876.47;;;19.24;61.96
56831;BME280;42713;42.676;23.352;2023-05-25T10:59:39;94872.72;;;19.25;63.35
56831;BME280;42713;42.676;23.352;2023-05-25T11:02:06;94862.78;;;19.31;63.69
56831;BME280;42713;42.676;23.352;2023-05-25T11:04:31;94865.06;;;19.38;63.91
56831;BME280;42713;42.676;23.352;2023-05-25T11:09:30;94860.06;;;19.50;63.72
56831;BME280;42713;42.676;23.352;2023-05-25T11:11:59;94865.94;;;19.61;64.42
56831;BME280;42713;42.676;23.352;2023-05-25T11:17:12;94860.16;;;19.87;63.91
56831;BME280;42713;42.676;23.352;2023-05-25T11:19:47;94863.88;;;20.00;61.78
56831;BME280;42713;42.676;23.352;2023-05-25T11:22:22;94865.34;;;20.06;59.91
56831;BME280;42713;42.676;23.352;2023-05-25T11:24:49;94855.19;;;20.08;60.78
56831;BME280;42713;42.676;23.352;2023-05-25T11:27:23;94867.09;;;20.11;60.98
56831;BME280;42713;42.676;23.352;2023-05-25T11:29:50;94864.63;;;20.14;61.19
56831;BME280;42713;42.676;23.352;2023-05-25T11:32:16;94857.94;;;20.17;60.10
56831;BME280;42713;42.676;23.352;2023-05-25T11:34:42;94868.75;;;20.20;59.42
56831;BME280;42713;42.676;23.352;2023-05-25T11:37:16;94865.44;;;20.15;58.86
56831;BME280;42713;42.676;23.352;2023-05-25T11:39:49;94865.69;;;20.13;59.25
56831;BME280;42713;42.676;23.352;2023-05-25T11:42:16;94867.69;;;20.21;60.68
56831;BME280;42713;42.676;23.352;2023-05-25T11:44:43;94864.22;;;20.21;59.55
56831;BME280;42713;42.676;23.352;2023-05-25T11:47:10;94866.72;;;20.03;61.23
56831;BME280;42713;42.676;23.352;2023-05-25T11:49:42;94852.53;;;20.08;61.25
56831;BME280;42713;42.676;23.352;2023-05-25T11:52:12;94862.28;;;20.13;61.70
56831;BME280;42713;42.676;23.352;2023-05-25T11:54:38;94860.19;;;20.10;61.79
56831;BME280;42713;42.676;23.352;2023-05-25T11:57:20;94856.88;;;20.04;62.27
56831;BME280;42713;42.676;23.352;2023-05-25T11:59:48;94851.84;;;20.02;62.13
56831;BME280;42713;42.676;23.352;2023-05-25T12:02:14;94849.16;;;20.16;62.75
56831;BME280;42713;42.676;23.352;2023-05-25T12:04:40;94844.03;;;20.20;61.24
56831;BME280;42713;42.676;23.352;2023-05-25T12:07:07;94850.69;;;20.31;61.19
56831;BME280;42713;42.676;23.352;2023-05-25T12:09:33;94854.56;;;20.48;58.03
56831;BME280;42713;42.676;23.352;2023-05-25T12:12:02;94847.91;;;20.59;56.21
56831;BME280;42713;42.676;23.352;2023-05-25T12:14:28;94846.25;;;20.63;54.95
56831;BME280;42713;42.676;23.352;2023-05-25T12:16:54;94848.53;;;20.79;56.17
56831;BME280;42713;42.676;23.352;2023-05-25T12:19:20;94842.38;;;20.92;56.25
56831;BME280;42713;42.676;23.352;2023-05-25T12:21:46;94843.81;;;20.98;55.19
56831;BME280;42713;42.676;23.352;2023-05-25T12:24:16;94843.75;;;21.21;55.40
56831;BME280;42713;42.676;23.352;2023-05-25T12:26:52;94833.31;;;21.34;54.45
56831;BME280;42713;42.676;23.352;2023-05-25T12:29:26;94826.63;;;21.45;53.30
56831;BME280;42713;42.676;23.352;2023-05-25T12:31:52;94821.22;;;21.59;50.11
56831;BME280;42713;42.676;23.352;2023-05-25T12:34:18;94813.41;;;21.80;51.53
56831;BME280;42713;42.676;23.352;2023-05-25T12:36:52;94812.50;;;21.94;51.37
56831;BME280;42713;42.676;23.352;2023-05-25T12:39:31;94801.19;;;22.05;49.89
56831;BME280;42713;42.676;23.352;2023-05-25T12:42:00;94802.47;;;22.17;49.41
56831;BME280;42713;42.676;23.352;2023-05-25T12:47:18;94792.56;;;22.44;49.44
56831;BME280;42713;42.676;23.352;2023-05-25T12:49:46;94790.81;;;22.65;48.92
56831;BME280;42713;42.676;23.352;2023-05-25T12:52:35;94780.84;;;22.83;45.39
56831;BME280;42713;42.676;23.352;2023-05-25T12:57:45;94773.22;;;23.21;45.83
56831;BME280;42713;42.676;23.352;2023-05-25T13:00:12;94771.38;;;23.42;46.81
56831;BME280;42713;42.676;23.352;2023-05-25T13:02:42;94760.25;;;23.61;45.33
56831;BME280;42713;42.676;23.352;2023-05-25T13:05:16;94759.84;;;23.81;44.87
56831;BME280;42713;42.676;23.352;2023-05-25T13:07:42;94752.00;;;23.97;44.53
56831;BME280;42713;42.676;23.352;2023-05-25T13:10:09;94753.97;;;24.08;43.39